sensor_id;sensor_type;location;lat;lon;timestamp;temperature;humidity
11855;DHT22;5987;53.140;8.904;2023-04-25T00:00:32;7.70;99.90
11855;DHT22;5987;53.140;8.904;2023-04-25T00:03:35;7.80;99.90
11855;DHT22;5987;53.140;8.904;2023-04-25T00:06:40;7.80;99.90
11855;DHT22;5987;53.140;8.904;2023-04-25T00:09:44;7.80;99.90
11855;DHT22;5987;53.140;8.904;2023-04-25T00:12:48;7.80;99.90
11855;DHT22;5987;53.140;8.904;2023-04-25T00:15:53;7.80;99.90
11855;DHT22;5987;53.140;8.904;2023-04-25T00:18:58;7.80;99.90
11855;DHT22;5987;53.140;8.904;2023-04-25T00:22:02;7.90;99.90
11855;DHT22;5987;53.140;8.904;2023-04-25T00:25:06;7.90;99.90
11855;DHT22;5987;53.140;8.904;2023-04-25T00:28:10;7.90;99.90
11855;DHT22;5987;53.140;8.904;2023-04-25T00:31:15;7.90;99.90
11855;DHT22;5987;53.140;8.904;2023-04-25T00:34:19;7.90;99.90
11855;DHT22;5987;53.140;8.904;2023-04-25T00:37:23;7.90;99.90
11855;DHT22;5987;53.140;8.904;2023-04-25T00:40:27;8.00;99.90
11855;DHT22;5987;53.140;8.904;2023-04-25T00:43:32;7.90;99.90
11855;DHT22;5987;53.140;8.904;2023-04-25T00:46:38;7.80;99.90
11855;DHT22;5987;53.140;8.904;2023-04-25T00:49:42;7.80;99.90
11855;DHT22;5987;53.140;8.904;2023-04-25T00:52:46;7.70;99.90
11855;DHT22;5987;53.140;8.904;2023-04-25T00:55:50;7.70;99.90
11855;DHT22;5987;53.140;8.904;2023-04-25T00:58:56;7.70;99.90
11855;DHT22;5987;53.140;8.904;2023-04-25T01:02:01;7.70;99.90
11855;DHT22;5987;53.140;8.904;2023-04-25T01:05:05;7.70;99.90
11855;DHT22;5987;53.140;8.904;2023-04-25T01:08:09;7.60;99.90
11855;DHT22;5987;53.140;8.904;2023-04-25T01:11:12;7.60;99.90
11855;DHT22;5987;53.140;8.904;2023-04-25T01:14:16;7.60;99.90
11855;DHT22;5987;53.140;8.904;2023-04-25T01:17:21;7.50;99.90
11855;DHT22;5987;53.140;8.904;2023-04-25T01:20:25;7.50;99.90
11855;DHT22;5987;53.140;8.904;2023-04-25T01:23:32;7.50;99.90
11855;DHT22;5987;53.140;8.904;2023-04-25T01:26:36;7.40;99.90
11855;DHT22;5987;53.140;8.904;2023-04-25T01:29:42;7.40;99.90
11855;DHT22;5987;53.140;8.904;2023-04-25T01:32:45;7.30;99.90
11855;DHT22;5987;53.140;8.904;2023-04-25T01:35:51;7.30;99.90
11855;DHT22;5987;53.140;8.904;2023-04-25T01:38:56;7.30;99.90
11855;DHT22;5987;53.140;8.904;2023-04-25T01:42:01;7.30;99.90
11855;DHT22;5987;53.140;8.904;2023-04-25T01:45:05;7.40;99.90
11855;DHT22;5987;53.140;8.904;2023-04-25T01:48:11;7.40;99.90
11855;DHT22;5987;53.140;8.904;2023-04-25T01:51:16;7.40;99.90
11855;DHT22;5987;53.140;8.904;2023-04-25T01:54:22;7.40;99.90
11855;DHT22;5987;53.140;8.904;2023-04-25T01:57:25;7.40;99.90
11855;DHT22;5987;53.140;8.904;2023-04-25T02:00:29;7.40;99.90
11855;DHT22;5987;53.140;8.904;2023-04-25T02:03:34;7.30;99.90
11855;DHT22;5987;53.140;8.904;2023-04-25T02:06:38;7.30;99.90
11855;DHT22;5987;53.140;8.904;2023-04-25T02:09:43;7.20;99.90
11855;DHT22;5987;53.140;8.904;2023-04-25T02:12:46;7.10;99.90
11855;DHT22;5987;53.140;8.904;2023-04-25T02:15:50;7.10;99.90
11855;DHT22;5987;53.140;8.904;2023-04-25T02:18:54;7.00;99.90
11855;DHT22;5987;53.140;8.904;2023-04-25T02:21:57;7.00;99.90
11855;DHT22;5987;53.140;8.904;2023-04-25T02:25:03;7.00;99.90
11855;DHT22;5987;53.140;8.904;2023-04-25T02:28:07;6.90;99.90
11855;DHT22;5987;53.140;8.904;2023-04-25T02:31:11;6.90;99.90
11855;DHT22;5987;53.140;8.904;2023-04-25T02:34:14;6.90;99.90
11855;DHT22;5987;53.140;8.904;2023-04-25T02:37:18;6.90;99.90
11855;DHT22;5987;53.140;8.904;2023-04-25T02:40:23;6.80;99.90
11855;DHT22;5987;53.140;8.904;2023-04-25T02:43:26;6.80;99.90
11855;DHT22;5987;53.140;8.904;2023-04-25T02:46:30;6.80;99.90
11855;DHT22;5987;53.140;8.904;2023-04-25T02:49:40;6.70;99.90
11855;DHT22;5987;53.140;8.904;2023-04-25T02:52:43;6.70;99.90
11855;DHT22;5987;53.140;8.904;2023-04-25T02:55:48;6.70;99.90
11855;DHT22;5987;53.140;8.904;2023-04-25T02:58:52;6.70;99.90
11855;DHT22;5987;53.140;8.904;2023-04-25T03:01:55;6.60;99.90
11855;DHT22;5987;53.140;8.904;2023-04-25T03:05:07;6.50;99.90
11855;DHT22;5987;53.140;8.904;2023-04-25T03:08:11;6.50;99.90
11855;DHT22;5987;53.140;8.904;2023-04-25T03:11:14;6.40;99.90
11855;DHT22;5987;53.140;8.904;2023-04-25T03:14:19;6.30;99.90
11855;DHT22;5987;53.140;8.904;2023-04-25T03:17:22;6.20;99.90
11855;DHT22;5987;53.140;8.904;2023-04-25T03:20:27;6.10;99.90
11855;DHT22;5987;53.140;8.904;2023-04-25T03:23:31;6.10;99.90
11855;DHT22;5987;53.140;8.904;2023-04-25T03:26:35;6.10;99.90
11855;DHT22;5987;53.140;8.904;2023-04-25T03:29:39;6.00;99.90
11855;DHT22;5987;53.140;8.904;2023-04-25T03:32:43;6.00;99.90
11855;DHT22;5987;53.140;8.904;2023-04-25T03:35:48;6.10;99.90
11855;DHT22;5987;53.140;8.904;2023-04-25T03:38:52;6.10;99.90
11855;DHT22;5987;53.140;8.904;2023-04-25T03:41:56;6.20;99.90
11855;DHT22;5987;53.140;8.904;2023-04-25T03:45:00;6.30;99.90
11855;DHT22;5987;53.140;8.904;2023-04-25T03:48:04;6.30;99.90
11855;DHT22;5987;53.140;8.904;2023-04-25T03:51:09;6.40;99.90
11855;DHT22;5987;53.140;8.904;2023-04-25T03:54:13;6.40;99.90
11855;DHT22;5987;53.140;8.904;2023-04-25T03:57:16;6.30;99.90
11855;DHT22;5987;53.140;8.904;2023-04-25T04:00:20;6.30;99.90
11855;DHT22;5987;53.140;8.904;2023-04-25T04:03:24;6.30;99.90
11855;DHT22;5987;53.140;8.904;2023-04-25T04:06:29;6.40;99.90
11855;DHT22;5987;53.140;8.904;2023-04-25T04:09:33;6.40;99.90
11855;DHT22;5987;53.140;8.904;2023-04-25T04:12:37;6.40;99.90
11855;DHT22;5987;53.140;8.904;2023-04-25T04:15:41;6.40;99.90
11855;DHT22;5987;53.140;8.904;2023-04-25T04:18:45;6.40;99.90
11855;DHT22;5987;53.140;8.904;2023-04-25T04:21:50;6.50;99.90
11855;DHT22;5987;53.140;8.904;2023-04-25T04:24:54;6.50;99.90
11855;DHT22;5987;53.140;8.904;2023-04-25T04:27:58;6.60;99.90
11855;DHT22;5987;53.140;8.904;2023-04-25T04:31:03;6.60;99.90
11855;DHT22;5987;53.140;8.904;2023-04-25T04:34:06;6.60;99.90
11855;DHT22;5987;53.140;8.904;2023-04-25T04:37:13;6.60;99.90
11855;DHT22;5987;53.140;8.904;2023-04-25T04:40:17;6.60;99.90
11855;DHT22;5987;53.140;8.904;2023-04-25T04:43:21;6.70;99.90
11855;DHT22;5987;53.140;8.904;2023-04-25T04:46:24;6.70;99.90
11855;DHT22;5987;53.140;8.904;2023-04-25T04:49:30;6.60;99.90
11855;DHT22;5987;53.140;8.904;2023-04-25T04:52:35;6.60;99.90
11855;DHT22;5987;53.140;8.904;2023-04-25T04:55:39;6.60;99.90
11855;DHT22;5987;53.140;8.904;2023-04-25T04:58:43;6.50;99.90
11855;DHT22;5987;53.140;8.904;2023-04-25T05:01:47;6.50;99.90
11855;DHT22;5987;53.140;8.904;2023-04-25T05:04:50;6.60;99.90
11855;DHT22;5987;53.140;8.904;2023-04-25T05:07:58;6.70;99.90
11855;DHT22;5987;53.140;8.904;2023-04-25T05:11:02;6.80;99.90
11855;DHT22;5987;53.140;8.904;2023-04-25T05:14:06;6.80;99.90
11855;DHT22;5987;53.140;8.904;2023-04-25T05:17:10;6.80;99.90
11855;DHT22;5987;53.140;8.904;2023-04-25T05:20:14;6.90;99.90
11855;DHT22;5987;53.140;8.904;2023-04-25T05:23:19;6.90;99.90
11855;DHT22;5987;53.140;8.904;2023-04-25T05:26:22;6.80;99.90
11855;DHT22;5987;53.140;8.904;2023-04-25T05:29:26;6.80;99.90
11855;DHT22;5987;53.140;8.904;2023-04-25T05:32:30;6.80;99.90
11855;DHT22;5987;53.140;8.904;2023-04-25T05:35:34;6.90;99.90
11855;DHT22;5987;53.140;8.904;2023-04-25T05:38:38;7.00;99.90
11855;DHT22;5987;53.140;8.904;2023-04-25T05:41:42;7.00;99.90
11855;DHT22;5987;53.140;8.904;2023-04-25T05:44:46;7.10;99.90
11855;DHT22;5987;53.140;8.904;2023-04-25T05:47:50;7.20;99.90
11855;DHT22;5987;53.140;8.904;2023-04-25T05:50:54;7.20;99.90
11855;DHT22;5987;53.140;8.904;2023-04-25T05:54:00;7.20;99.90
11855;DHT22;5987;53.140;8.904;2023-04-25T05:57:03;7.10;99.90
11855;DHT22;5987;53.140;8.904;2023-04-25T06:00:08;7.20;99.90
11855;DHT22;5987;53.140;8.904;2023-04-25T06:03:13;7.20;99.90
11855;DHT22;5987;53.140;8.904;2023-04-25T06:06:21;7.10;99.90
11855;DHT22;5987;53.140;8.904;2023-04-25T06:09:27;7.10;99.90
11855;DHT22;5987;53.140;8.904;2023-04-25T06:12:30;7.30;99.90
11855;DHT22;5987;53.140;8.904;2023-04-25T06:15:35;7.40;99.90
11855;DHT22;5987;53.140;8.904;2023-04-25T06:18:39;7.60;99.90
11855;DHT22;5987;53.140;8.904;2023-04-25T06:21:43;7.80;99.90
11855;DHT22;5987;53.140;8.904;2023-04-25T06:24:48;7.90;99.90
11855;DHT22;5987;53.140;8.904;2023-04-25T06:27:52;8.20;99.90
11855;DHT22;5987;53.140;8.904;2023-04-25T06:30:56;8.50;99.90
11855;DHT22;5987;53.140;8.904;2023-04-25T06:34:00;8.20;99.90
11855;DHT22;5987;53.140;8.904;2023-04-25T06:37:04;8.10;99.90
11855;DHT22;5987;53.140;8.904;2023-04-25T06:40:10;8.10;99.90
11855;DHT22;5987;53.140;8.904;2023-04-25T06:43:14;8.10;99.90
11855;DHT22;5987;53.140;8.904;2023-04-25T06:46:17;8.00;99.90
11855;DHT22;5987;53.140;8.904;2023-04-25T06:49:21;8.00;99.90
11855;DHT22;5987;53.140;8.904;2023-04-25T06:52:25;8.10;99.90
11855;DHT22;5987;53.140;8.904;2023-04-25T06:55:30;7.90;99.90
11855;DHT22;5987;53.140;8.904;2023-04-25T06:58:34;7.70;99.90
11855;DHT22;5987;53.140;8.904;2023-04-25T07:01:38;7.50;99.90
11855;DHT22;5987;53.140;8.904;2023-04-25T07:04:42;7.30;99.90
11855;DHT22;5987;53.140;8.904;2023-04-25T07:07:47;7.20;99.90
11855;DHT22;5987;53.140;8.904;2023-04-25T07:10:52;7.20;99.90
11855;DHT22;5987;53.140;8.904;2023-04-25T07:13:55;7.30;99.90
11855;DHT22;5987;53.140;8.904;2023-04-25T07:16:59;7.30;99.90
11855;DHT22;5987;53.140;8.904;2023-04-25T07:20:04;7.40;99.90
11855;DHT22;5987;53.140;8.904;2023-04-25T07:23:09;7.50;99.90
11855;DHT22;5987;53.140;8.904;2023-04-25T07:26:14;7.70;99.90
11855;DHT22;5987;53.140;8.904;2023-04-25T07:29:18;7.90;99.90
11855;DHT22;5987;53.140;8.904;2023-04-25T07:32:22;8.00;99.90
11855;DHT22;5987;53.140;8.904;2023-04-25T07:35:26;8.00;99.90
11855;DHT22;5987;53.140;8.904;2023-04-25T07:38:29;8.20;99.90
11855;DHT22;5987;53.140;8.904;2023-04-25T07:41:34;8.60;99.90
11855;DHT22;5987;53.140;8.904;2023-04-25T07:44:38;8.90;99.90
11855;DHT22;5987;53.140;8.904;2023-04-25T07:47:42;9.00;99.90
11855;DHT22;5987;53.140;8.904;2023-04-25T07:50:46;9.00;99.90
11855;DHT22;5987;53.140;8.904;2023-04-25T07:53:49;9.10;99.90
11855;DHT22;5987;53.140;8.904;2023-04-25T07:56:54;9.50;99.90
11855;DHT22;5987;53.140;8.904;2023-04-25T07:59:58;9.70;99.90
11855;DHT22;5987;53.140;8.904;2023-04-25T08:03:03;9.50;99.90
11855;DHT22;5987;53.140;8.904;2023-04-25T08:06:11;9.20;99.90
11855;DHT22;5987;53.140;8.904;2023-04-25T08:09:15;9.00;99.90
11855;DHT22;5987;53.140;8.904;2023-04-25T08:12:20;8.90;99.90
11855;DHT22;5987;53.140;8.904;2023-04-25T08:15:24;8.80;99.90
11855;DHT22;5987;53.140;8.904;2023-04-25T08:18:28;8.60;99.90
11855;DHT22;5987;53.140;8.904;2023-04-25T08:21:32;8.50;99.90
11855;DHT22;5987;53.140;8.904;2023-04-25T08:24:36;8.40;99.90
11855;DHT22;5987;53.140;8.904;2023-04-25T08:27:42;8.50;99.90
11855;DHT22;5987;53.140;8.904;2023-04-25T08:30:46;8.60;99.90
11855;DHT22;5987;53.140;8.904;2023-04-25T08:33:49;8.70;99.90
11855;DHT22;5987;53.140;8.904;2023-04-25T08:36:54;8.80;99.90
11855;DHT22;5987;53.140;8.904;2023-04-25T08:39:58;9.00;99.90
11855;DHT22;5987;53.140;8.904;2023-04-25T08:43:03;9.10;99.90
11855;DHT22;5987;53.140;8.904;2023-04-25T08:46:14;9.50;99.90
11855;DHT22;5987;53.140;8.904;2023-04-25T08:49:21;9.70;99.90
11855;DHT22;5987;53.140;8.904;2023-04-25T08:52:28;9.80;99.90
11855;DHT22;5987;53.140;8.904;2023-04-25T08:55:41;9.60;99.90
11855;DHT22;5987;53.140;8.904;2023-04-25T08:58:47;9.70;99.90
11855;DHT22;5987;53.140;8.904;2023-04-25T09:01:52;9.50;99.90
11855;DHT22;5987;53.140;8.904;2023-04-25T09:04:57;9.50;99.90
11855;DHT22;5987;53.140;8.904;2023-04-25T09:08:01;10.10;99.90
11855;DHT22;5987;53.140;8.904;2023-04-25T09:11:04;10.50;99.90
11855;DHT22;5987;53.140;8.904;2023-04-25T09:14:14;11.10;99.90
11855;DHT22;5987;53.140;8.904;2023-04-25T09:17:18;11.70;99.90
11855;DHT22;5987;53.140;8.904;2023-04-25T09:20:22;12.00;99.90
11855;DHT22;5987;53.140;8.904;2023-04-25T09:23:26;12.00;99.90
11855;DHT22;5987;53.140;8.904;2023-04-25T09:26:31;12.00;99.90
11855;DHT22;5987;53.140;8.904;2023-04-25T09:29:37;11.40;99.90
11855;DHT22;5987;53.140;8.904;2023-04-25T09:32:43;10.80;99.90
11855;DHT22;5987;53.140;8.904;2023-04-25T09:35:47;10.20;99.90
11855;DHT22;5987;53.140;8.904;2023-04-25T09:38:55;8.90;99.90
11855;DHT22;5987;53.140;8.904;2023-04-25T09:41:59;7.70;99.90
11855;DHT22;5987;53.140;8.904;2023-04-25T09:45:05;7.10;99.90
11855;DHT22;5987;53.140;8.904;2023-04-25T09:48:09;6.70;99.90
11855;DHT22;5987;53.140;8.904;2023-04-25T09:51:13;6.80;99.90
11855;DHT22;5987;53.140;8.904;2023-04-25T09:54:17;7.20;99.90
11855;DHT22;5987;53.140;8.904;2023-04-25T09:57:23;7.40;99.90
11855;DHT22;5987;53.140;8.904;2023-04-25T10:00:30;7.70;99.90
11855;DHT22;5987;53.140;8.904;2023-04-25T10:03:36;8.00;99.90
11855;DHT22;5987;53.140;8.904;2023-04-25T10:06:43;8.20;99.90
11855;DHT22;5987;53.140;8.904;2023-04-25T10:09:49;8.80;99.90
11855;DHT22;5987;53.140;8.904;2023-04-25T10:12:58;9.20;99.90
11855;DHT22;5987;53.140;8.904;2023-04-25T10:16:05;9.20;99.90
11855;DHT22;5987;53.140;8.904;2023-04-25T10:19:09;9.00;99.90
11855;DHT22;5987;53.140;8.904;2023-04-25T10:22:17;9.10;99.90
11855;DHT22;5987;53.140;8.904;2023-04-25T10:25:26;9.30;99.90
11855;DHT22;5987;53.140;8.904;2023-04-25T10:28:56;9.70;99.90
11855;DHT22;5987;53.140;8.904;2023-04-25T10:32:02;10.00;99.90
11855;DHT22;5987;53.140;8.904;2023-04-25T10:35:14;9.90;99.90
11855;DHT22;5987;53.140;8.904;2023-04-25T10:38:19;10.10;99.90
11855;DHT22;5987;53.140;8.904;2023-04-25T10:41:22;10.50;99.90
11855;DHT22;5987;53.140;8.904;2023-04-25T10:44:26;10.50;99.90
11855;DHT22;5987;53.140;8.904;2023-04-25T10:47:36;10.60;99.90
11855;DHT22;5987;53.140;8.904;2023-04-25T10:50:49;10.40;99.90
11855;DHT22;5987;53.140;8.904;2023-04-25T10:54:00;10.50;99.90
11855;DHT22;5987;53.140;8.904;2023-04-25T10:57:05;10.30;99.90
11855;DHT22;5987;53.140;8.904;2023-04-25T11:00:11;10.30;99.90
11855;DHT22;5987;53.140;8.904;2023-04-25T11:03:21;10.40;99.90
11855;DHT22;5987;53.140;8.904;2023-04-25T11:06:31;10.60;99.90
11855;DHT22;5987;53.140;8.904;2023-04-25T11:09:50;10.90;99.90
11855;DHT22;5987;53.140;8.904;2023-04-25T11:12:55;11.20;99.90
11855;DHT22;5987;53.140;8.904;2023-04-25T11:15:59;10.90;99.90
11855;DHT22;5987;53.140;8.904;2023-04-25T11:19:15;10.40;99.90
11855;DHT22;5987;53.140;8.904;2023-04-25T11:22:21;10.00;99.90
11855;DHT22;5987;53.140;8.904;2023-04-25T11:25:26;9.60;99.90
11855;DHT22;5987;53.140;8.904;2023-04-25T11:28:30;9.40;99.90
11855;DHT22;5987;53.140;8.904;2023-04-25T11:31:33;9.20;99.90
11855;DHT22;5987;53.140;8.904;2023-04-25T11:34:39;9.40;99.90
11855;DHT22;5987;53.140;8.904;2023-04-25T11:37:46;9.60;99.90
11855;DHT22;5987;53.140;8.904;2023-04-25T11:40:50;9.70;99.90
11855;DHT22;5987;53.140;8.904;2023-04-25T11:43:54;9.70;99.90
11855;DHT22;5987;53.140;8.904;2023-04-25T11:46:58;9.80;99.90
11855;DHT22;5987;53.140;8.904;2023-04-25T11:50:05;9.70;99.90
11855;DHT22;5987;53.140;8.904;2023-04-25T11:53:10;9.60;99.90
11855;DHT22;5987;53.140;8.904;2023-04-25T11:56:15;9.70;99.90
11855;DHT22;5987;53.140;8.904;2023-04-25T11:59:23;10.10;99.90
11855;DHT22;5987;53.140;8.904;2023-04-25T12:02:28;10.10;99.90
11855;DHT22;5987;53.140;8.904;2023-04-25T12:05:33;10.20;99.90
11855;DHT22;5987;53.140;8.904;2023-04-25T12:08:59;10.10;99.90
11855;DHT22;5987;53.140;8.904;2023-04-25T12:12:09;10.40;99.90
11855;DHT22;5987;53.140;8.904;2023-04-25T12:15:27;9.70;99.90
11855;DHT22;5987;53.140;8.904;2023-04-25T12:18:30;9.40;99.90
11855;DHT22;5987;53.140;8.904;2023-04-25T12:21:36;9.30;99.90
11855;DHT22;5987;53.140;8.904;2023-04-25T12:24:58;9.30;99.90
11855;DHT22;5987;53.140;8.904;2023-04-25T12:28:13;9.30;99.90
11855;DHT22;5987;53.140;8.904;2023-04-25T12:31:17;9.30;99.90
11855;DHT22;5987;53.140;8.904;2023-04-25T12:34:23;9.30;99.90
11855;DHT22;5987;53.140;8.904;2023-04-25T12:37:29;9.40;99.90
11855;DHT22;5987;53.140;8.904;2023-04-25T12:40:33;9.70;99.90
11855;DHT22;5987;53.140;8.904;2023-04-25T12:43:36;10.10;99.90
11855;DHT22;5987;53.140;8.904;2023-04-25T12:46:40;10.00;99.90
11855;DHT22;5987;53.140;8.904;2023-04-25T12:49:44;10.30;99.90
11855;DHT22;5987;53.140;8.904;2023-04-25T12:52:49;10.50;99.90
11855;DHT22;5987;53.140;8.904;2023-04-25T12:55:53;10.60;99.90
11855;DHT22;5987;53.140;8.904;2023-04-25T12:59:01;10.70;99.90
11855;DHT22;5987;53.140;8.904;2023-04-25T13:02:06;10.80;99.90
11855;DHT22;5987;53.140;8.904;2023-04-25T13:05:09;10.60;99.90
11855;DHT22;5987;53.140;8.904;2023-04-25T13:08:14;10.30;99.90
11855;DHT22;5987;53.140;8.904;2023-04-25T13:11:18;9.80;99.90
11855;DHT22;5987;53.140;8.904;2023-04-25T13:14:22;9.60;99.90
11855;DHT22;5987;53.140;8.904;2023-04-25T13:17:26;9.50;99.90
11855;DHT22;5987;53.140;8.904;2023-04-25T13:20:30;9.10;99.90
11855;DHT22;5987;53.140;8.904;2023-04-25T13:23:35;9.10;99.90
11855;DHT22;5987;53.140;8.904;2023-04-25T13:26:38;9.40;99.90
11855;DHT22;5987;53.140;8.904;2023-04-25T13:29:42;9.50;99.90
11855;DHT22;5987;53.140;8.904;2023-04-25T13:32:46;9.60;99.90
11855;DHT22;5987;53.140;8.904;2023-04-25T13:35:50;9.80;99.90
11855;DHT22;5987;53.140;8.904;2023-04-25T13:38:57;10.00;99.90
11855;DHT22;5987;53.140;8.904;2023-04-25T13:42:00;10.30;99.90
11855;DHT22;5987;53.140;8.904;2023-04-25T13:45:05;10.40;99.90
11855;DHT22;5987;53.140;8.904;2023-04-25T13:48:10;10.40;99.90
11855;DHT22;5987;53.140;8.904;2023-04-25T13:51:15;10.50;99.90
11855;DHT22;5987;53.140;8.904;2023-04-25T13:54:20;10.30;99.90
11855;DHT22;5987;53.140;8.904;2023-04-25T13:57:25;10.10;99.90
11855;DHT22;5987;53.140;8.904;2023-04-25T14:00:28;9.90;99.90
11855;DHT22;5987;53.140;8.904;2023-04-25T14:03:33;9.90;99.90
11855;DHT22;5987;53.140;8.904;2023-04-25T14:06:37;9.90;99.90
11855;DHT22;5987;53.140;8.904;2023-04-25T14:09:42;9.80;99.90
11855;DHT22;5987;53.140;8.904;2023-04-25T14:12:46;9.80;99.90
11855;DHT22;5987;53.140;8.904;2023-04-25T14:15:50;10.00;99.90
11855;DHT22;5987;53.140;8.904;2023-04-25T14:18:53;9.70;99.90
11855;DHT22;5987;53.140;8.904;2023-04-25T14:21:57;9.50;99.90
11855;DHT22;5987;53.140;8.904;2023-04-25T14:25:03;9.50;99.90
11855;DHT22;5987;53.140;8.904;2023-04-25T14:28:07;9.90;99.90
11855;DHT22;5987;53.140;8.904;2023-04-25T14:31:11;10.30;99.90
11855;DHT22;5987;53.140;8.904;2023-04-25T14:34:14;10.50;99.90
11855;DHT22;5987;53.140;8.904;2023-04-25T14:37:18;10.10;99.90
11855;DHT22;5987;53.140;8.904;2023-04-25T14:40:24;9.00;99.90
11855;DHT22;5987;53.140;8.904;2023-04-25T14:43:28;8.10;99.90
11855;DHT22;5987;53.140;8.904;2023-04-25T14:46:32;7.30;99.90
11855;DHT22;5987;53.140;8.904;2023-04-25T14:49:36;6.90;99.90
11855;DHT22;5987;53.140;8.904;2023-04-25T14:52:40;6.90;99.90
11855;DHT22;5987;53.140;8.904;2023-04-25T14:55:45;7.20;99.90
11855;DHT22;5987;53.140;8.904;2023-04-25T14:58:48;7.50;99.90
11855;DHT22;5987;53.140;8.904;2023-04-25T15:01:53;7.70;99.90
11855;DHT22;5987;53.140;8.904;2023-04-25T15:05:00;8.10;99.90
11855;DHT22;5987;53.140;8.904;2023-04-25T15:08:05;8.60;99.90
11855;DHT22;5987;53.140;8.904;2023-04-25T15:11:10;8.90;99.90
11855;DHT22;5987;53.140;8.904;2023-04-25T15:14:14;9.20;99.90
11855;DHT22;5987;53.140;8.904;2023-04-25T15:17:18;9.40;99.90
11855;DHT22;5987;53.140;8.904;2023-04-25T15:20:22;9.30;99.90
11855;DHT22;5987;53.140;8.904;2023-04-25T15:23:26;9.10;99.90
11855;DHT22;5987;53.140;8.904;2023-04-25T15:26:32;8.80;99.90
11855;DHT22;5987;53.140;8.904;2023-04-25T15:29:35;8.30;99.90
11855;DHT22;5987;53.140;8.904;2023-04-25T15:32:39;7.80;99.90
11855;DHT22;5987;53.140;8.904;2023-04-25T15:35:43;7.80;99.90
11855;DHT22;5987;53.140;8.904;2023-04-25T15:38:47;7.70;99.90
11855;DHT22;5987;53.140;8.904;2023-04-25T15:41:53;7.90;99.90
11855;DHT22;5987;53.140;8.904;2023-04-25T15:44:57;8.00;99.90
11855;DHT22;5987;53.140;8.904;2023-04-25T15:48:00;8.10;99.90
11855;DHT22;5987;53.140;8.904;2023-04-25T15:51:05;8.30;99.90
11855;DHT22;5987;53.140;8.904;2023-04-25T15:54:09;8.30;99.90
11855;DHT22;5987;53.140;8.904;2023-04-25T15:57:14;8.30;99.90
11855;DHT22;5987;53.140;8.904;2023-04-25T16:00:18;8.30;99.90
11855;DHT22;5987;53.140;8.904;2023-04-25T16:03:23;8.30;99.90
11855;DHT22;5987;53.140;8.904;2023-04-25T16:06:27;8.30;99.90
11855;DHT22;5987;53.140;8.904;2023-04-25T16:09:31;8.20;99.90
11855;DHT22;5987;53.140;8.904;2023-04-25T16:12:36;8.20;99.90
11855;DHT22;5987;53.140;8.904;2023-04-25T16:15:41;8.40;99.90
11855;DHT22;5987;53.140;8.904;2023-04-25T16:18:44;8.20;99.90
11855;DHT22;5987;53.140;8.904;2023-04-25T16:21:48;8.40;99.90
11855;DHT22;5987;53.140;8.904;2023-04-25T16:24:52;8.30;99.90
11855;DHT22;5987;53.140;8.904;2023-04-25T16:27:57;8.30;99.90
11855;DHT22;5987;53.140;8.904;2023-04-25T16:31:01;8.30;99.90
11855;DHT22;5987;53.140;8.904;2023-04-25T16:34:05;8.10;99.90
11855;DHT22;5987;53.140;8.904;2023-04-25T16:37:09;8.00;99.90
11855;DHT22;5987;53.140;8.904;2023-04-25T16:40:13;8.00;99.90
11855;DHT22;5987;53.140;8.904;2023-04-25T16:43:18;8.10;99.90
11855;DHT22;5987;53.140;8.904;2023-04-25T16:46:22;8.10;99.90
11855;DHT22;5987;53.140;8.904;2023-04-25T16:49:26;8.20;99.90
11855;DHT22;5987;53.140;8.904;2023-04-25T16:52:30;8.40;99.90
11855;DHT22;5987;53.140;8.904;2023-04-25T16:55:34;8.50;99.90
11855;DHT22;5987;53.140;8.904;2023-04-25T16:58:39;8.50;99.90
11855;DHT22;5987;53.140;8.904;2023-04-25T17:01:42;8.10;99.90
11855;DHT22;5987;53.140;8.904;2023-04-25T17:04:46;8.00;99.90
11855;DHT22;5987;53.140;8.904;2023-04-25T17:07:50;8.00;99.90
11855;DHT22;5987;53.140;8.904;2023-04-25T17:10:54;8.00;99.90
11855;DHT22;5987;53.140;8.904;2023-04-25T17:13:59;8.00;99.90
11855;DHT22;5987;53.140;8.904;2023-04-25T17:17:03;8.10;99.90
11855;DHT22;5987;53.140;8.904;2023-04-25T17:20:07;8.00;99.90
11855;DHT22;5987;53.140;8.904;2023-04-25T17:23:12;7.90;99.90
11855;DHT22;5987;53.140;8.904;2023-04-25T17:26:15;7.90;99.90
11855;DHT22;5987;53.140;8.904;2023-04-25T17:29:20;7.90;99.90
11855;DHT22;5987;53.140;8.904;2023-04-25T17:32:24;7.80;99.90
11855;DHT22;5987;53.140;8.904;2023-04-25T17:35:29;7.80;99.90
11855;DHT22;5987;53.140;8.904;2023-04-25T17:38:34;7.80;99.90
11855;DHT22;5987;53.140;8.904;2023-04-25T17:41:39;7.90;99.90
11855;DHT22;5987;53.140;8.904;2023-04-25T17:44:45;7.90;99.90
11855;DHT22;5987;53.140;8.904;2023-04-25T17:47:48;7.80;99.90
11855;DHT22;5987;53.140;8.904;2023-04-25T17:50:52;7.80;99.90
11855;DHT22;5987;53.140;8.904;2023-04-25T17:53:56;7.70;99.90
11855;DHT22;5987;53.140;8.904;2023-04-25T17:56:59;7.60;99.90
11855;DHT22;5987;53.140;8.904;2023-04-25T18:00:06;7.50;99.90
11855;DHT22;5987;53.140;8.904;2023-04-25T18:03:12;7.40;99.90
11855;DHT22;5987;53.140;8.904;2023-04-25T18:06:17;7.40;99.90
11855;DHT22;5987;53.140;8.904;2023-04-25T18:09:21;7.30;99.90
11855;DHT22;5987;53.140;8.904;2023-04-25T18:12:25;7.20;99.90
11855;DHT22;5987;53.140;8.904;2023-04-25T18:15:30;7.20;99.90
11855;DHT22;5987;53.140;8.904;2023-04-25T18:18:35;7.10;99.90
11855;DHT22;5987;53.140;8.904;2023-04-25T18:21:39;7.10;99.90
11855;DHT22;5987;53.140;8.904;2023-04-25T18:24:43;7.20;99.90
11855;DHT22;5987;53.140;8.904;2023-04-25T18:27:47;7.10;99.90
11855;DHT22;5987;53.140;8.904;2023-04-25T18:30:53;7.10;99.90
11855;DHT22;5987;53.140;8.904;2023-04-25T18:33:58;7.10;99.90
11855;DHT22;5987;53.140;8.904;2023-04-25T18:37:01;6.90;99.90
11855;DHT22;5987;53.140;8.904;2023-04-25T18:40:06;6.90;99.90
11855;DHT22;5987;53.140;8.904;2023-04-25T18:43:15;6.80;99.90
11855;DHT22;5987;53.140;8.904;2023-04-25T18:46:20;6.70;99.90
11855;DHT22;5987;53.140;8.904;2023-04-25T18:49:25;6.70;99.90
11855;DHT22;5987;53.140;8.904;2023-04-25T18:52:28;6.70;99.90
11855;DHT22;5987;53.140;8.904;2023-04-25T18:55:32;6.70;99.90
11855;DHT22;5987;53.140;8.904;2023-04-25T18:58:36;6.60;99.90
11855;DHT22;5987;53.140;8.904;2023-04-25T19:01:41;6.70;99.90
11855;DHT22;5987;53.140;8.904;2023-04-25T19:04:44;6.60;99.90
11855;DHT22;5987;53.140;8.904;2023-04-25T19:07:48;6.60;99.90
11855;DHT22;5987;53.140;8.904;2023-04-25T19:10:53;6.50;99.90
11855;DHT22;5987;53.140;8.904;2023-04-25T19:13:57;6.50;99.90
11855;DHT22;5987;53.140;8.904;2023-04-25T19:17:03;6.40;99.90
11855;DHT22;5987;53.140;8.904;2023-04-25T19:20:08;6.40;99.90
11855;DHT22;5987;53.140;8.904;2023-04-25T19:23:12;6.30;99.90
11855;DHT22;5987;53.140;8.904;2023-04-25T19:26:15;6.30;99.90
11855;DHT22;5987;53.140;8.904;2023-04-25T19:29:19;6.30;99.90
11855;DHT22;5987;53.140;8.904;2023-04-25T19:32:25;6.30;99.90
11855;DHT22;5987;53.140;8.904;2023-04-25T19:35:29;6.20;99.90
11855;DHT22;5987;53.140;8.904;2023-04-25T19:38:34;6.20;99.90
11855;DHT22;5987;53.140;8.904;2023-04-25T19:41:38;6.20;99.90
11855;DHT22;5987;53.140;8.904;2023-04-25T19:44:42;6.10;99.90
11855;DHT22;5987;53.140;8.904;2023-04-25T19:47:47;6.10;99.90
11855;DHT22;5987;53.140;8.904;2023-04-25T19:50:50;6.00;99.90
11855;DHT22;5987;53.140;8.904;2023-04-25T19:53:54;6.00;99.90
11855;DHT22;5987;53.140;8.904;2023-04-25T19:56:58;6.00;99.90
11855;DHT22;5987;53.140;8.904;2023-04-25T20:00:05;5.90;99.90
11855;DHT22;5987;53.140;8.904;2023-04-25T20:03:13;5.90;99.90